createdAt,value
2022-08-21T00:04:39.629Z,19.30
2022-08-21T00:09:59.324Z,19.30
2022-08-21T00:15:02.288Z,19.30
2022-08-21T00:20:09.606Z,19.20
2022-08-21T00:25:13.099Z,19.00
2022-08-21T00:30:23.180Z,18.90
2022-08-21T00:35:32.603Z,18.80
2022-08-21T00:40:49.018Z,18.80
2022-08-21T00:45:52.107Z,18.80
2022-08-21T00:51:07.523Z,18.80
2022-08-21T00:56:12.356Z,18.80
2022-08-21T01:01:15.480Z,18.60
2022-08-21T01:06:18.218Z,18.60
2022-08-21T01:11:21.764Z,18.50
2022-08-21T01:16:24.755Z,18.40
2022-08-21T01:21:29.353Z,18.30
2022-08-21T01:26:35.627Z,18.30
2022-08-21T01:31:38.275Z,18.30
2022-08-21T01:36:40.758Z,18.30
2022-08-21T01:41:43.272Z,18.40
2022-08-21T01:46:45.909Z,18.50
2022-08-21T01:51:48.650Z,18.50
2022-08-21T01:56:53.864Z,18.50
2022-08-21T02:01:56.495Z,18.50
2022-08-21T02:07:00.074Z,18.60
2022-08-21T02:12:02.674Z,18.60
2022-08-21T02:17:09.705Z,18.50
2022-08-21T02:22:13.075Z,18.40
2022-08-21T02:27:15.753Z,18.50
2022-08-21T02:32:23.097Z,18.60
2022-08-21T02:37:26.156Z,18.70
2022-08-21T02:42:28.738Z,18.80
2022-08-21T02:47:31.274Z,18.80
2022-08-21T02:52:35.779Z,18.80
2022-08-21T02:57:38.442Z,18.80
2022-08-21T03:02:42.342Z,18.80
2022-08-21T03:07:46.117Z,18.60
2022-08-21T03:12:49.382Z,18.50
2022-08-21T03:17:54.149Z,18.40
2022-08-21T03:22:56.899Z,18.30
2022-08-21T03:28:00.882Z,18.30
2022-08-21T03:33:04.252Z,18.30
2022-08-21T03:38:07.210Z,20.40
2022-08-21T03:43:10.689Z,18.30
2022-08-21T03:48:13.938Z,18.30
2022-08-21T03:53:18.102Z,18.30
2022-08-21T03:58:25.566Z,18.40
2022-08-21T04:03:29.045Z,18.50
2022-08-21T04:08:31.724Z,18.50
2022-08-21T04:13:34.279Z,18.50
2022-08-21T04:18:36.962Z,18.60
2022-08-21T04:23:39.718Z,18.70
2022-08-21T04:28:42.911Z,18.80
2022-08-21T04:33:47.010Z,18.90
2022-08-21T04:38:49.779Z,19.00
2022-08-21T04:43:52.387Z,19.10
2022-08-21T04:48:55.487Z,19.20
2022-08-21T04:54:10.155Z,19.40
2022-08-21T04:59:23.430Z,19.50
2022-08-21T05:04:31.215Z,19.70
2022-08-21T05:09:34.808Z,20.00
2022-08-21T05:14:37.995Z,20.30
2022-08-21T05:19:40.978Z,20.40
2022-08-21T05:24:43.946Z,20.60
2022-08-21T05:29:46.557Z,21.00
2022-08-21T05:34:49.150Z,21.30
2022-08-21T05:40:04.725Z,21.80
2022-08-21T05:45:14.763Z,22.00
2022-08-21T05:50:17.485Z,22.20
2022-08-21T05:55:20.607Z,22.10
2022-08-21T06:00:24.162Z,22.30
2022-08-21T06:05:37.331Z,22.20
2022-08-21T06:10:40.746Z,22.40
2022-08-21T06:15:43.955Z,22.60
2022-08-21T06:20:47.492Z,22.60
2022-08-21T06:25:50.258Z,22.80
2022-08-21T06:30:53.504Z,22.80
2022-08-21T06:35:57.107Z,22.70
2022-08-21T06:40:59.983Z,22.60
2022-08-21T06:46:03.194Z,22.60
2022-08-21T06:51:09.059Z,22.80
2022-08-21T06:56:11.960Z,22.80
2022-08-21T07:01:14.646Z,23.10
2022-08-21T07:06:18.189Z,23.00
2022-08-21T07:11:23.448Z,23.20
2022-08-21T07:16:26.333Z,23.40
2022-08-21T07:21:29.258Z,23.60
2022-08-21T07:26:31.768Z,23.70
2022-08-21T07:31:34.419Z,23.80
2022-08-21T07:36:37.024Z,24.10
2022-08-21T07:41:39.526Z,24.10
2022-08-21T07:46:42.147Z,24.30
2022-08-21T07:51:44.796Z,24.50
2022-08-21T07:56:47.523Z,24.40
2022-08-21T08:01:50.159Z,22.40
2022-08-21T08:06:52.875Z,23.70
2022-08-21T08:11:55.998Z,23.90
2022-08-21T08:16:58.778Z,24.00
2022-08-21T08:22:01.474Z,24.00
2022-08-21T08:27:04.387Z,24.50
2022-08-21T08:32:10.429Z,24.80
2022-08-21T08:37:13.052Z,25.60
2022-08-21T08:42:37.973Z,26.00
2022-08-21T08:47:58.839Z,26.00
2022-08-21T08:53:11.714Z,26.00
2022-08-21T08:58:23.270Z,26.10
2022-08-21T09:03:27.606Z,25.80
2022-08-21T09:08:41.378Z,25.50
2022-08-21T09:14:02.867Z,25.70
2022-08-21T09:19:28.474Z,26.20
2022-08-21T09:24:58.829Z,26.00
2022-08-21T09:30:02.802Z,25.90
2022-08-21T09:35:12.836Z,26.40
2022-08-21T09:40:22.355Z,27.10
2022-08-21T09:45:24.947Z,27.60
2022-08-21T09:50:30.212Z,27.40
2022-08-21T09:55:58.813Z,27.20
2022-08-21T10:01:04.538Z,27.70
2022-08-21T10:06:11.736Z,27.60
2022-08-21T10:11:17.217Z,27.00
2022-08-21T10:16:31.601Z,26.40
2022-08-21T10:21:58.033Z,26.30
2022-08-21T10:27:20.576Z,26.50
2022-08-21T10:32:51.085Z,27.20
2022-08-21T10:38:00.293Z,27.80
2022-08-21T10:43:21.125Z,28.70
2022-08-21T10:48:59.702Z,27.60
2022-08-21T10:54:23.207Z,26.90
2022-08-21T10:59:43.263Z,26.90
2022-08-21T11:04:51.923Z,27.00
2022-08-21T11:09:57.948Z,26.80
2022-08-21T11:15:08.097Z,26.80
2022-08-21T11:20:39.020Z,27.20
2022-08-21T11:25:48.243Z,27.00
2022-08-21T11:31:17.824Z,27.10
2022-08-21T11:36:28.151Z,27.00
2022-08-21T11:41:41.271Z,26.90
2022-08-21T11:46:46.784Z,26.70
2022-08-21T11:52:15.185Z,27.10
2022-08-21T11:57:29.510Z,27.40
2022-08-21T12:02:38.089Z,27.20
2022-08-21T12:07:43.731Z,27.10
2022-08-21T12:12:46.593Z,27.30
2022-08-21T12:17:54.317Z,27.40
2022-08-21T12:23:12.833Z,27.50
2022-08-21T12:28:24.064Z,27.20
2022-08-21T12:33:38.488Z,26.90
2022-08-21T12:38:55.101Z,27.00
2022-08-21T12:44:06.329Z,27.00
2022-08-21T12:49:27.088Z,27.10
2022-08-21T12:54:32.372Z,27.00
2022-08-21T12:59:40.291Z,26.70
2022-08-21T13:04:43.204Z,26.80
2022-08-21T13:09:51.501Z,26.60
2022-08-21T13:14:58.926Z,26.50
2022-08-21T13:20:03.389Z,26.70
2022-08-21T13:25:13.410Z,26.60
2022-08-21T13:30:21.808Z,26.60
2022-08-21T13:35:32.753Z,27.00
2022-08-21T13:40:52.154Z,27.10
2022-08-21T13:45:56.858Z,27.30
2022-08-21T13:51:01.909Z,26.80
2022-08-21T13:56:05.939Z,26.80
2022-08-21T14:01:24.071Z,26.90
2022-08-21T14:06:29.413Z,27.30
2022-08-21T14:11:36.670Z,27.00
2022-08-21T14:17:24.307Z,26.50
2022-08-21T14:22:42.865Z,25.90
2022-08-21T14:28:03.334Z,25.60
2022-08-21T14:33:19.524Z,25.60
2022-08-21T14:38:28.578Z,25.20
2022-08-21T14:43:32.712Z,25.10
2022-08-21T14:48:35.414Z,25.10
2022-08-21T14:53:38.160Z,24.80
2022-08-21T14:58:44.216Z,25.00
2022-08-21T15:03:49.358Z,25.10
2022-08-21T15:08:52.091Z,25.10
2022-08-21T15:13:58.726Z,24.80
2022-08-21T15:19:01.379Z,24.50
2022-08-21T15:24:04.433Z,24.30
2022-08-21T15:29:08.880Z,24.00
2022-08-21T15:34:11.479Z,23.80
2022-08-21T15:39:14.110Z,23.40
2022-08-21T15:44:17.178Z,22.80
2022-08-21T15:49:21.188Z,22.70
2022-08-21T15:54:23.679Z,22.50
2022-08-21T15:59:27.893Z,22.40
2022-08-21T16:04:30.437Z,22.30
2022-08-21T16:09:33.174Z,22.30
2022-08-21T16:14:37.429Z,22.00
2022-08-21T16:19:40.393Z,21.90
2022-08-21T16:24:43.192Z,21.80
2022-08-21T16:29:47.190Z,21.70
2022-08-21T16:34:50.668Z,21.60
2022-08-21T16:39:53.446Z,21.50
2022-08-21T16:44:56.553Z,21.50
2022-08-21T16:49:59.363Z,21.50
2022-08-21T16:55:02.190Z,21.50
2022-08-21T17:00:16.438Z,21.40
2022-08-21T17:05:19.511Z,21.40
2022-08-21T17:10:22.218Z,21.40
2022-08-21T17:15:28.396Z,21.50
2022-08-21T17:20:31.606Z,21.50
2022-08-21T17:25:37.031Z,21.30
2022-08-21T17:30:43.020Z,21.30
2022-08-21T17:35:45.851Z,21.30
2022-08-21T17:40:48.808Z,21.30
2022-08-21T17:45:51.470Z,21.30
2022-08-21T17:50:54.330Z,21.20
2022-08-21T17:55:57.304Z,21.00
2022-08-21T18:01:03.775Z,20.90
2022-08-21T18:06:06.783Z,20.80
2022-08-21T18:11:10.375Z,20.70
2022-08-21T18:16:19.650Z,20.60
2022-08-21T18:21:23.002Z,20.60
2022-08-21T18:26:32.986Z,20.40
2022-08-21T18:31:38.223Z,20.40
2022-08-21T18:36:40.815Z,20.30
2022-08-21T18:41:44.690Z,20.20
2022-08-21T18:47:12.249Z,20.20
2022-08-21T18:52:20.190Z,20.10
2022-08-21T18:57:26.109Z,20.10
2022-08-21T19:02:29.018Z,19.90
2022-08-21T19:07:31.945Z,19.90
2022-08-21T19:12:35.740Z,19.90
2022-08-21T19:17:39.158Z,19.80
2022-08-21T19:22:41.961Z,19.80
2022-08-21T19:27:45.087Z,19.80
2022-08-21T19:32:49.852Z,19.70
2022-08-21T19:37:52.654Z,19.70
2022-08-21T19:42:55.877Z,19.60
2022-08-21T19:47:58.794Z,19.60
2022-08-21T19:53:01.842Z,19.60
2022-08-21T19:58:06.419Z,19.50
2022-08-21T20:03:09.190Z,19.50
2022-08-21T20:13:34.454Z,19.40
2022-08-21T20:18:40.498Z,19.40
2022-08-21T20:23:48.770Z,19.50
2022-08-21T20:29:07.120Z,19.50
2022-08-21T20:34:09.722Z,19.40
2022-08-21T20:39:12.603Z,19.40
2022-08-21T20:44:17.432Z,19.30
2022-08-21T20:49:25.917Z,19.30
2022-08-21T20:54:35.599Z,19.20
2022-08-21T20:59:47.028Z,19.20
2022-08-21T21:05:09.553Z,19.20
2022-08-21T21:10:19.915Z,19.20
2022-08-21T21:15:30.963Z,19.20
2022-08-21T21:20:39.137Z,19.30
2022-08-21T21:25:49.310Z,19.20
2022-08-21T21:36:43.968Z,19.10
2022-08-21T21:42:30.333Z,19.10
2022-08-21T21:47:36.153Z,19.10
2022-08-21T21:52:57.063Z,19.00
2022-08-21T21:58:07.400Z,19.00
2022-08-21T22:03:26.628Z,19.00
2022-08-21T22:08:51.150Z,19.00
2022-08-21T22:14:18.754Z,19.00
2022-08-21T22:19:28.062Z,18.90
2022-08-21T22:24:35.587Z,18.80
2022-08-21T22:29:50.629Z,18.80
2022-08-21T22:35:16.198Z,18.90
2022-08-21T22:40:27.621Z,18.70
2022-08-21T22:45:33.105Z,18.70
2022-08-21T22:50:38.690Z,18.70
2022-08-21T22:55:55.028Z,18.70
2022-08-21T23:01:06.512Z,18.60
2022-08-21T23:06:35.354Z,18.60
2022-08-21T23:11:43.212Z,18.60
2022-08-21T23:17:14.408Z,18.60
2022-08-21T23:22:28.227Z,18.50
2022-08-21T23:27:56.459Z,18.40
2022-08-21T23:33:28.776Z,18.40
2022-08-21T23:39:06.664Z,18.40
2022-08-21T23:44:46.489Z,18.40
2022-08-21T23:50:19.586Z,18.30
2022-08-21T23:55:36.629Z,18.30
